createdAt,value
2018-11-21T00:00:02.991Z,101550.66
2018-11-21T00:02:33.177Z,101549.67
2018-11-21T00:05:14.447Z,101548.00
2018-11-21T00:07:45.352Z,101546.20
2018-11-21T00:10:15.389Z,101554.80
2018-11-21T00:12:52.505Z,101559.94
2018-11-21T00:15:22.363Z,101563.94
2018-11-21T00:17:52.568Z,101563.13
2018-11-21T00:20:22.507Z,101567.97
2018-11-21T00:22:52.267Z,101561.12
2018-11-21T00:25:22.376Z,101563.47
2018-11-21T00:27:52.535Z,101559.66
2018-11-21T00:30:23.296Z,101561.80
2018-11-21T00:32:53.243Z,101553.65
2018-11-21T00:35:24.080Z,101551.30
2018-11-21T00:37:56.184Z,101560.59
2018-11-21T00:40:25.970Z,101559.27
2018-11-21T00:42:56.778Z,101553.47
2018-11-21T00:45:27.475Z,101558.95
2018-11-21T00:47:58.492Z,101558.63
2018-11-21T00:50:28.410Z,101554.00
2018-11-21T00:52:57.681Z,101559.95
2018-11-21T00:55:27.540Z,101564.79
2018-11-21T00:57:57.468Z,101562.27
2018-11-21T01:00:27.271Z,101564.79
2018-11-21T01:02:57.455Z,101569.09
2018-11-21T01:05:27.911Z,101564.92
2018-11-21T01:07:58.457Z,101566.30
2018-11-21T01:10:28.797Z,101576.75
2018-11-21T01:12:58.580Z,101570.58
2018-11-21T01:15:29.708Z,101569.59
2018-11-21T01:18:00.457Z,101571.57
2018-11-21T01:20:30.325Z,101583.56
2018-11-21T01:23:01.262Z,101583.88
2018-11-21T01:25:34.180Z,101581.20
2018-11-21T01:28:04.386Z,101583.21
2018-11-21T01:30:34.700Z,101598.81
2018-11-21T01:33:09.581Z,101592.34
2018-11-21T01:35:34.668Z,101601.81
2018-11-21T01:38:04.647Z,101593.84
2018-11-21T01:40:35.199Z,101599.67
2018-11-21T01:43:05.505Z,101601.47
2018-11-21T01:45:35.746Z,101604.13
2018-11-21T01:48:06.035Z,101606.44
2018-11-21T01:50:35.959Z,101601.30
2018-11-21T01:53:07.828Z,101605.29
2018-11-21T01:55:38.800Z,101600.14
2018-11-21T01:58:09.332Z,101604.47
2018-11-21T02:00:39.911Z,101605.80
2018-11-21T02:03:09.805Z,101608.45
2018-11-21T02:05:40.541Z,101608.80
2018-11-21T02:08:11.037Z,101610.78
2018-11-21T02:10:40.872Z,101616.95
2018-11-21T02:13:10.868Z,101610.60
2018-11-21T02:15:47.224Z,101619.42
2018-11-21T02:18:17.717Z,101625.90
2018-11-21T02:20:47.609Z,101614.42
2018-11-21T02:23:19.438Z,101613.13
2018-11-21T02:25:50.549Z,101614.95
2018-11-21T02:28:25.255Z,101611.46
2018-11-21T02:30:55.064Z,101606.16
2018-11-21T02:33:26.263Z,101608.12
2018-11-21T02:35:56.093Z,101603.83
2018-11-21T02:38:25.920Z,101606.97
2018-11-21T02:40:56.466Z,101609.16
2018-11-21T02:43:26.363Z,101609.50
2018-11-21T02:45:56.332Z,101609.50
2018-11-21T02:48:27.367Z,101614.13
2018-11-21T02:51:03.408Z,101606.84
2018-11-21T02:53:33.716Z,101612.16
2018-11-21T02:56:03.542Z,101611.13
2018-11-21T02:58:44.844Z,101615.63
2018-11-21T03:01:14.654Z,101613.14
2018-11-21T03:03:46.689Z,101620.77
2018-11-21T03:06:17.324Z,101623.08
2018-11-21T03:08:47.120Z,101625.11
2018-11-21T03:11:17.842Z,101627.94
2018-11-21T03:13:47.694Z,101628.57
2018-11-21T03:16:17.580Z,101630.77
2018-11-21T03:18:49.095Z,101633.42
2018-11-21T03:21:19.873Z,101642.72
2018-11-21T03:23:50.640Z,101645.20
2018-11-21T03:26:21.276Z,101640.70
2018-11-21T03:28:51.076Z,101640.70
2018-11-21T03:31:20.860Z,101639.71
2018-11-21T03:33:57.810Z,101642.37
2018-11-21T03:36:27.647Z,101645.02
2018-11-21T03:38:58.341Z,101649.02
2018-11-21T03:41:28.650Z,101645.37
2018-11-21T03:43:59.398Z,101630.75
2018-11-21T03:46:30.152Z,101631.75
2018-11-21T03:49:00.991Z,101638.05
2018-11-21T03:51:30.831Z,101632.38
2018-11-21T03:54:00.954Z,101635.36
2018-11-21T03:56:30.800Z,101635.02
2018-11-21T03:59:01.135Z,101635.03
2018-11-21T04:01:31.722Z,101636.34
2018-11-21T04:04:07.795Z,101641.61
2018-11-21T04:06:37.678Z,101633.17
2018-11-21T04:09:09.533Z,101635.67
2018-11-21T04:11:40.115Z,101639.65
2018-11-21T04:14:14.420Z,101646.64
2018-11-21T04:16:45.774Z,101660.11
2018-11-21T04:19:17.917Z,101658.94
2018-11-21T04:21:48.575Z,101660.26
2018-11-21T04:24:18.415Z,101664.94
2018-11-21T04:26:49.759Z,101664.59
2018-11-21T04:29:19.697Z,101667.77
2018-11-21T04:31:49.560Z,101673.21
2018-11-21T04:34:19.410Z,101674.42
2018-11-21T04:36:50.849Z,101684.17
2018-11-21T04:39:21.761Z,101683.84
2018-11-21T04:41:52.016Z,101685.84
2018-11-21T04:44:22.177Z,101686.14
2018-11-21T04:46:52.736Z,101692.14
2018-11-21T04:49:22.539Z,101703.75
2018-11-21T04:51:52.742Z,101704.27
2018-11-21T04:54:23.935Z,101710.73
2018-11-21T04:56:55.513Z,101720.66
2018-11-21T04:59:25.761Z,101718.34
2018-11-21T05:01:55.960Z,101729.31
2018-11-21T05:04:25.749Z,101719.85
2018-11-21T05:06:55.531Z,101724.84
2018-11-21T05:09:25.309Z,101722.69
2018-11-21T05:11:55.860Z,101727.16
2018-11-21T05:14:27.903Z,101725.69
2018-11-21T05:16:58.104Z,101725.34
2018-11-21T05:19:28.018Z,101725.34
2018-11-21T05:21:57.284Z,101721.19
2018-11-21T05:24:27.093Z,101727.33
2018-11-21T05:26:57.598Z,101734.31
2018-11-21T05:29:28.471Z,101731.11
2018-11-21T05:31:58.287Z,101738.89
2018-11-21T05:34:27.982Z,101734.74
2018-11-21T05:36:58.161Z,101737.22
2018-11-21T05:39:28.391Z,101735.23
2018-11-21T05:41:58.215Z,101744.89
2018-11-21T05:44:31.415Z,101738.55
2018-11-21T05:46:59.317Z,101748.80
2018-11-21T05:49:29.095Z,101746.03
2018-11-21T05:52:00.720Z,101744.56
2018-11-21T05:54:31.495Z,101757.01
2018-11-21T05:57:01.316Z,101757.83
2018-11-21T05:59:30.854Z,101763.47
2018-11-21T06:02:00.675Z,101766.94
2018-11-21T06:04:31.484Z,101768.78
2018-11-21T06:07:01.303Z,101764.27
2018-11-21T06:09:31.559Z,101766.58
2018-11-21T06:12:04.428Z,101771.91
2018-11-21T06:14:31.531Z,101775.42
2018-11-21T06:17:01.352Z,101771.73
2018-11-21T06:19:32.727Z,101777.73
2018-11-21T06:22:02.967Z,101778.36
2018-11-21T06:24:32.784Z,101781.50
2018-11-21T06:27:03.311Z,101785.14
2018-11-21T06:29:33.138Z,101783.49
2018-11-21T06:32:02.995Z,101790.98
2018-11-21T06:34:34.122Z,101787.45
2018-11-21T06:37:05.346Z,101792.26
2018-11-21T06:39:35.581Z,101795.95
2018-11-21T06:42:05.587Z,101799.75
2018-11-21T06:44:36.364Z,101796.03
2018-11-21T06:47:07.434Z,101799.35
2018-11-21T06:49:37.262Z,101800.49
2018-11-21T06:52:07.474Z,101804.92
2018-11-21T06:54:37.581Z,101809.06
2018-11-21T06:57:08.540Z,101811.34
2018-11-21T06:59:40.132Z,101812.99
2018-11-21T07:02:09.970Z,101818.55
2018-11-21T07:04:39.768Z,101826.86
2018-11-21T07:07:10.150Z,101833.16
2018-11-21T07:09:40.396Z,101825.22
2018-11-21T07:12:10.771Z,101833.19
2018-11-21T07:14:40.920Z,101835.14
2018-11-21T07:17:11.790Z,101838.14
2018-11-21T07:19:42.769Z,101840.23
2018-11-21T07:22:12.613Z,101841.15
2018-11-21T07:24:42.416Z,101846.42
2018-11-21T07:27:12.842Z,101851.00
2018-11-21T07:29:43.128Z,101863.52
2018-11-21T07:32:12.992Z,101860.58
2018-11-21T07:34:43.237Z,101869.02
2018-11-21T07:37:13.400Z,101869.52
2018-11-21T07:39:44.168Z,101878.44
2018-11-21T07:42:15.062Z,101880.75
2018-11-21T07:44:44.773Z,101887.73
2018-11-21T07:47:15.917Z,101895.36
2018-11-21T07:49:47.185Z,101891.02
2018-11-21T07:52:18.497Z,101889.25
2018-11-21T07:54:48.336Z,101892.73
2018-11-21T07:57:41.853Z,101888.56
2018-11-21T08:01:06.571Z,101894.37
2018-11-21T08:03:38.590Z,101896.55
2018-11-21T08:06:11.051Z,101898.80
2018-11-21T08:09:03.038Z,101896.88
2018-11-21T08:11:58.430Z,101907.47
2018-11-21T08:14:46.453Z,101910.00
2018-11-21T08:17:35.460Z,101916.67
2018-11-21T08:20:23.936Z,101911.07
2018-11-21T08:23:12.322Z,101910.59
2018-11-21T08:26:16.620Z,101914.64
2018-11-21T08:28:46.421Z,101921.63
2018-11-21T08:31:16.654Z,101917.83
2018-11-21T08:33:46.645Z,101908.11
2018-11-21T08:36:16.973Z,101909.09
2018-11-21T08:38:49.337Z,101915.20
2018-11-21T08:41:19.316Z,101913.77
2018-11-21T08:43:49.479Z,101920.33
2018-11-21T08:46:19.461Z,101923.33
2018-11-21T08:48:49.614Z,101922.72
2018-11-21T08:51:19.907Z,101934.68
2018-11-21T08:53:50.419Z,101941.86
2018-11-21T08:56:20.790Z,101950.33
2018-11-21T08:58:51.415Z,101956.74
2018-11-21T09:01:21.345Z,101951.75
2018-11-21T09:03:52.093Z,101952.49
2018-11-21T09:06:22.113Z,101955.47
2018-11-21T09:08:52.007Z,101952.52
2018-11-21T09:11:22.420Z,101954.48
2018-11-21T09:13:53.227Z,101953.17
2018-11-21T09:16:22.667Z,101952.36
2018-11-21T09:18:53.560Z,101957.99
2018-11-21T09:21:24.070Z,101954.50
2018-11-21T09:23:54.352Z,101950.11
2018-11-21T09:26:24.698Z,101950.38
2018-11-21T09:28:55.510Z,101955.39
2018-11-21T09:31:25.332Z,101946.97
2018-11-21T09:33:55.226Z,101948.31
2018-11-21T09:36:25.036Z,101949.80
2018-11-21T09:38:55.423Z,101950.77
2018-11-21T09:41:25.287Z,101956.41
2018-11-21T09:43:56.057Z,101955.37
2018-11-21T09:46:26.037Z,101954.53
2018-11-21T09:48:55.851Z,101957.14
2018-11-21T09:51:26.250Z,101966.50
2018-11-21T09:53:56.112Z,101962.91
2018-11-21T09:56:26.217Z,101959.92
2018-11-21T09:58:56.606Z,101962.08
2018-11-21T10:02:03.215Z,101965.87
2018-11-21T10:04:33.525Z,101961.13
2018-11-21T10:07:03.328Z,101963.36
2018-11-21T10:09:38.746Z,101973.39
2018-11-21T10:12:09.416Z,101983.47
2018-11-21T10:14:39.187Z,101975.83
2018-11-21T10:17:09.497Z,101978.84
2018-11-21T10:19:39.785Z,101977.16
2018-11-21T10:22:09.623Z,101977.48
2018-11-21T10:24:39.814Z,101983.48
2018-11-21T10:27:10.288Z,101986.65
2018-11-21T10:29:40.066Z,101994.81
2018-11-21T10:32:10.300Z,101995.80
2018-11-21T10:34:40.169Z,101992.59
2018-11-21T10:37:10.029Z,101991.09
2018-11-21T10:39:39.796Z,101991.38
2018-11-21T10:42:09.956Z,101995.05
2018-11-21T10:44:39.949Z,101992.73
2018-11-21T10:47:09.770Z,101987.77
2018-11-21T10:49:39.580Z,101986.55
2018-11-21T10:52:09.489Z,101985.41
2018-11-21T10:54:39.730Z,101991.56
2018-11-21T10:57:09.520Z,101986.05
2018-11-21T10:59:40.156Z,101993.73
2018-11-21T11:02:27.868Z,101994.42
2018-11-21T11:05:11.449Z,102002.42
2018-11-21T11:07:59.575Z,101992.14
2018-11-21T11:10:51.625Z,101993.29
2018-11-21T11:13:40.444Z,101994.30
2018-11-21T11:16:35.447Z,101991.20
2018-11-21T11:19:30.168Z,101995.89
2018-11-21T11:22:25.449Z,101995.21
2018-11-21T11:25:17.512Z,101989.86
2018-11-21T11:28:14.593Z,101988.14
2018-11-21T11:31:03.838Z,101991.05
2018-11-21T11:33:55.907Z,101996.37
2018-11-21T11:36:53.981Z,102006.33
2018-11-21T11:39:45.680Z,101999.40
2018-11-21T11:42:43.905Z,102003.97
2018-11-21T11:45:33.447Z,102002.97
2018-11-21T11:48:21.611Z,102014.78
2018-11-21T11:51:22.547Z,102004.13
2018-11-21T11:54:14.360Z,102015.95
2018-11-21T11:57:02.569Z,102014.61
2018-11-21T11:59:47.231Z,102010.81
2018-11-21T12:02:23.929Z,102009.70
2018-11-21T12:05:18.946Z,102008.48
2018-11-21T12:08:13.576Z,102015.48
2018-11-21T12:11:01.219Z,102014.87
2018-11-21T12:13:53.231Z,102013.56
2018-11-21T12:16:47.733Z,102008.67
2018-11-21T12:19:45.993Z,102020.84
2018-11-21T12:22:34.053Z,102014.02
2018-11-21T12:25:21.526Z,102010.14
2018-11-21T12:28:11.476Z,102008.45
2018-11-21T12:30:57.032Z,102017.06
2018-11-21T12:33:45.999Z,102010.26
2018-11-21T12:36:33.652Z,102021.09
2018-11-21T12:39:21.298Z,102027.28
2018-11-21T12:42:09.990Z,102022.14
2018-11-21T12:45:01.536Z,102017.23
2018-11-21T12:47:50.691Z,102025.84
2018-11-21T12:50:38.335Z,102024.04
2018-11-21T12:53:22.882Z,102026.34
2018-11-21T12:56:21.097Z,102018.39
2018-11-21T12:59:08.658Z,102025.39
2018-11-21T13:01:56.828Z,102019.58
2018-11-21T13:04:54.837Z,102008.91
2018-11-21T13:07:42.664Z,102013.08
2018-11-21T13:10:44.021Z,102022.95
2018-11-21T13:13:47.961Z,102018.33
2018-11-21T13:16:39.227Z,102023.34
2018-11-21T13:19:26.951Z,102020.23
2018-11-21T13:22:26.770Z,102024.56
2018-11-21T13:25:18.528Z,102023.23
2018-11-21T13:30:29.452Z,102020.22
2018-11-21T13:33:16.173Z,102020.00
2018-11-21T13:36:09.534Z,102029.40
2018-11-21T13:39:02.200Z,102025.39
2018-11-21T13:45:09.344Z,102038.74
2018-11-21T13:48:00.916Z,102040.25
2018-11-21T13:50:50.767Z,102043.27
2018-11-21T13:53:33.991Z,102041.42
2018-11-21T13:56:05.389Z,102037.59
2018-11-21T13:58:37.282Z,102044.06
2018-11-21T14:01:09.274Z,102050.87
2018-11-21T14:03:40.588Z,102047.70
2018-11-21T14:06:12.276Z,102042.89
2018-11-21T14:08:43.998Z,102044.27
2018-11-21T14:11:16.180Z,102051.19
2018-11-21T14:13:48.232Z,102057.53
2018-11-21T14:16:19.573Z,102051.67
2018-11-21T14:18:52.332Z,102051.67
2018-11-21T14:21:23.896Z,102048.85
2018-11-21T14:23:55.664Z,102050.53
2018-11-21T14:26:27.112Z,102045.58
2018-11-21T14:28:59.084Z,102050.69
2018-11-21T14:31:31.353Z,102053.80
2018-11-21T14:34:03.294Z,102049.06
2018-11-21T14:36:35.266Z,102048.25
2018-11-21T14:39:10.752Z,102053.78
2018-11-21T14:41:43.982Z,102043.40
2018-11-21T14:44:16.158Z,102050.20
2018-11-21T14:46:49.622Z,102044.41
2018-11-21T14:49:21.520Z,102046.36
2018-11-21T14:51:54.605Z,102043.53
2018-11-21T14:54:26.995Z,102045.34
2018-11-21T14:56:59.313Z,102048.31
2018-11-21T14:59:32.343Z,102052.34
2018-11-21T15:02:04.060Z,102046.33
2018-11-21T15:04:36.342Z,102055.66
2018-11-21T15:07:07.968Z,102053.00
2018-11-21T15:09:39.818Z,102049.65
2018-11-21T15:12:11.385Z,102058.92
2018-11-21T15:14:43.203Z,102060.25
2018-11-21T15:17:15.302Z,102063.98
2018-11-21T15:19:47.606Z,102071.69
2018-11-21T15:22:19.134Z,102066.91
2018-11-21T15:24:51.052Z,102067.51
2018-11-21T15:27:22.497Z,102074.31
2018-11-21T15:30:00.068Z,102081.94
2018-11-21T15:32:26.945Z,102085.73
2018-11-21T15:34:58.309Z,102080.30
2018-11-21T15:37:30.163Z,102085.70
2018-11-21T15:40:01.853Z,102090.58
2018-11-21T15:42:33.328Z,102092.51
2018-11-21T15:45:05.117Z,102088.08
2018-11-21T15:47:36.887Z,102087.03
2018-11-21T15:50:11.544Z,102089.06
2018-11-21T15:52:43.470Z,102087.38
2018-11-21T15:55:16.662Z,102088.08
2018-11-21T15:57:48.716Z,102079.72
2018-11-21T16:00:22.700Z,102084.69
2018-11-21T16:02:56.219Z,102085.03
2018-11-21T16:05:28.073Z,102089.09
2018-11-21T16:08:03.508Z,102083.52
2018-11-21T16:10:36.208Z,102093.95
2018-11-21T16:13:08.157Z,102101.89
2018-11-21T16:16:04.222Z,102104.40
2018-11-21T16:18:36.021Z,102106.01
2018-11-21T16:21:07.669Z,102110.19
2018-11-21T16:23:39.858Z,102112.02
2018-11-21T16:26:11.599Z,102111.13
2018-11-21T16:28:43.345Z,102119.80
2018-11-21T16:31:15.138Z,102111.33
2018-11-21T16:33:47.804Z,102111.87
2018-11-21T16:36:26.936Z,102114.14
2018-11-21T16:38:51.043Z,102117.27
2018-11-21T16:41:23.148Z,102118.09
2018-11-21T16:43:54.570Z,102121.37
2018-11-21T16:46:26.957Z,102126.56
2018-11-21T16:48:59.405Z,102120.74
2018-11-21T16:51:31.579Z,102126.37
2018-11-21T16:54:03.714Z,102134.14
2018-11-21T16:56:35.167Z,102142.08
2018-11-21T16:59:06.943Z,102144.86
2018-11-21T17:01:38.558Z,102145.36
2018-11-21T17:04:10.016Z,102149.34
2018-11-21T17:06:42.256Z,102146.69
2018-11-21T17:09:14.500Z,102151.77
2018-11-21T17:11:46.559Z,102143.80
2018-11-21T17:14:18.067Z,102144.77
2018-11-21T17:16:49.617Z,102147.47
2018-11-21T17:19:20.943Z,102144.14
2018-11-21T17:21:53.070Z,102143.44
2018-11-21T17:24:24.611Z,102145.47
2018-11-21T17:26:59.709Z,102148.17
2018-11-21T17:29:31.829Z,102148.41
2018-11-21T17:32:03.963Z,102156.42
2018-11-21T17:34:35.355Z,102159.16
2018-11-21T17:37:07.147Z,102168.25
2018-11-21T17:39:38.630Z,102163.77
2018-11-21T17:42:11.504Z,102164.34
2018-11-21T17:44:44.300Z,102166.77
2018-11-21T17:47:17.026Z,102169.31
2018-11-21T17:49:48.770Z,102166.53
2018-11-21T17:52:20.539Z,102174.30
2018-11-21T17:54:51.954Z,102176.03
2018-11-21T17:57:27.928Z,102176.15
2018-11-21T17:59:55.017Z,102177.62
2018-11-21T18:02:28.202Z,102176.30
2018-11-21T18:04:59.638Z,102182.07
2018-11-21T18:07:31.093Z,102182.19
2018-11-21T18:10:04.563Z,102189.53
2018-11-21T18:12:35.913Z,102186.88
2018-11-21T18:15:08.165Z,102185.05
2018-11-21T18:17:39.667Z,102187.81
2018-11-21T18:20:12.272Z,102191.48
2018-11-21T18:22:44.888Z,102197.86
2018-11-21T18:25:19.076Z,102199.45
2018-11-21T18:27:50.786Z,102195.67
2018-11-21T18:30:24.427Z,102195.67
2018-11-21T18:32:55.840Z,102202.67
2018-11-21T18:35:27.168Z,102196.75
2018-11-21T18:38:00.267Z,102191.48
2018-11-21T18:40:32.154Z,102196.48
2018-11-21T18:43:03.658Z,102204.00
2018-11-21T18:45:37.415Z,102204.92
2018-11-21T18:48:10.728Z,102203.19
2018-11-21T18:50:42.883Z,102200.33
2018-11-21T18:53:14.489Z,102203.96
2018-11-21T18:55:58.817Z,102203.05
2018-11-21T18:58:39.484Z,102199.16
2018-11-21T19:01:11.973Z,102208.97
2018-11-21T19:03:43.919Z,102205.23
2018-11-21T19:06:15.860Z,102200.14
2018-11-21T19:08:47.198Z,102203.65
2018-11-21T19:11:19.086Z,102210.84
2018-11-21T19:13:51.239Z,102202.53
2018-11-21T19:16:23.485Z,102199.87
2018-11-21T19:18:55.279Z,102203.80
2018-11-21T19:21:26.904Z,102215.75
2018-11-21T19:23:58.685Z,102208.96
2018-11-21T19:26:30.230Z,102214.98
2018-11-21T19:29:02.243Z,102209.78
2018-11-21T19:31:35.000Z,102206.87
2018-11-21T19:34:06.559Z,102206.87
2018-11-21T19:36:38.138Z,102202.33
2018-11-21T19:39:13.247Z,102206.16
2018-11-21T19:41:45.095Z,102208.40
2018-11-21T19:44:16.496Z,102211.50
2018-11-21T19:46:48.521Z,102211.65
2018-11-21T19:49:19.983Z,102213.71
2018-11-21T19:51:51.382Z,102212.17
2018-11-21T19:54:24.304Z,102217.07
2018-11-21T19:56:56.065Z,102220.29
2018-11-21T19:59:28.478Z,102223.80
2018-11-21T20:02:00.213Z,102220.64
2018-11-21T20:04:31.989Z,102222.82
2018-11-21T20:07:04.257Z,102226.04
2018-11-21T20:09:36.741Z,102224.83
2018-11-21T20:12:08.186Z,102227.42
2018-11-21T20:14:39.725Z,102225.12
2018-11-21T20:17:11.195Z,102228.55
2018-11-21T20:19:44.378Z,102224.15
2018-11-21T20:22:15.784Z,102232.17
2018-11-21T20:24:48.456Z,102224.56
2018-11-21T20:27:21.605Z,102226.57
2018-11-21T20:29:54.859Z,102232.44
2018-11-21T20:32:25.279Z,102226.86
2018-11-21T20:34:56.916Z,102235.39
2018-11-21T20:37:28.890Z,102234.47
2018-11-21T20:40:01.470Z,102230.23
2018-11-21T20:42:33.511Z,102230.84
2018-11-21T20:45:08.634Z,102233.86
2018-11-21T20:47:40.808Z,102233.20
2018-11-21T20:50:13.138Z,102229.58
2018-11-21T20:52:45.653Z,102237.28
2018-11-21T20:55:18.349Z,102229.38
2018-11-21T20:57:51.802Z,102235.09
2018-11-21T21:00:24.840Z,102235.59
2018-11-21T21:02:56.276Z,102228.05
2018-11-21T21:05:29.539Z,102229.02
2018-11-21T21:08:00.999Z,102219.94
2018-11-21T21:10:34.695Z,102223.15
2018-11-21T21:13:06.137Z,102221.97
2018-11-21T21:15:38.120Z,102227.84
2018-11-21T21:18:09.955Z,102219.38
2018-11-21T21:20:42.844Z,102223.66
2018-11-21T21:23:14.508Z,102216.66
2018-11-21T21:25:46.197Z,102220.29
2018-11-21T21:28:17.984Z,102219.31
2018-11-21T21:30:50.326Z,102227.13
2018-11-21T21:33:22.204Z,102218.70
2018-11-21T21:35:54.067Z,102221.62
2018-11-21T21:38:26.712Z,102225.89
2018-11-21T21:40:59.166Z,102224.21
2018-11-21T21:43:30.739Z,102213.71
2018-11-21T21:46:07.773Z,102217.07
2018-11-21T21:48:37.045Z,102218.45
2018-11-21T21:51:09.897Z,102211.83
2018-11-21T21:53:42.307Z,102208.75
2018-11-21T21:56:13.855Z,102213.59
2018-11-21T21:58:46.372Z,102219.43
2018-11-21T22:01:18.496Z,102218.31
2018-11-21T22:03:49.919Z,102217.48
2018-11-21T22:06:21.665Z,102219.99
2018-11-21T22:08:54.147Z,102220.91
2018-11-21T22:11:27.100Z,102216.05
2018-11-21T22:13:58.914Z,102222.73
2018-11-21T22:16:30.156Z,102221.41
2018-11-21T22:19:02.541Z,102216.81
2018-11-21T22:21:34.821Z,102223.23
2018-11-21T22:24:07.432Z,102222.59
2018-11-21T22:26:39.537Z,102224.56
2018-11-21T22:29:10.942Z,102223.30
2018-11-21T22:31:43.252Z,102225.66
2018-11-21T22:34:14.983Z,102229.64
2018-11-21T22:36:46.425Z,102228.31
2018-11-21T22:39:19.106Z,102231.38
2018-11-21T22:41:50.565Z,102223.86
2018-11-21T22:44:22.350Z,102221.20
2018-11-21T22:46:53.949Z,102227.01
2018-11-21T22:49:25.450Z,102227.84
2018-11-21T22:51:58.415Z,102226.57
2018-11-21T22:54:29.855Z,102230.14
2018-11-21T22:57:01.764Z,102228.31
2018-11-21T22:59:33.645Z,102229.11
2018-11-21T23:02:05.120Z,102230.48
2018-11-21T23:04:37.529Z,102236.01
2018-11-21T23:07:10.271Z,102226.78
2018-11-21T23:09:42.413Z,102232.53
2018-11-21T23:12:15.038Z,102231.26
2018-11-21T23:14:47.708Z,102228.10
2018-11-21T23:17:20.598Z,102229.52
2018-11-21T23:19:52.689Z,102231.14
2018-11-21T23:22:25.259Z,102222.47
2018-11-21T23:24:57.769Z,102229.44
2018-11-21T23:27:29.917Z,102224.42
2018-11-21T23:30:01.924Z,102228.55
2018-11-21T23:32:33.677Z,102233.00
2018-11-21T23:35:06.004Z,102233.20
2018-11-21T23:37:38.157Z,102228.75
2018-11-21T23:40:11.980Z,102230.48
2018-11-21T23:42:44.882Z,102230.02
2018-11-21T23:45:17.003Z,102225.48
2018-11-21T23:47:48.764Z,102233.99
2018-11-21T23:50:20.380Z,102233.44
2018-11-21T23:52:52.696Z,102230.43
2018-11-21T23:55:24.551Z,102223.08
2018-11-21T23:57:56.325Z,102229.52
